sensor_id;sensor_type;location;lat;lon;timestamp;P1;durP1;ratioP1;P2;durP2;ratioP2
19836;SDS011;10079;55.740;37.662;2022-12-07T00:02:01;5.10;;;2.63;;
19836;SDS011;10079;55.740;37.662;2022-12-07T00:05:08;3.33;;;2.47;;
19836;SDS011;10079;55.740;37.662;2022-12-07T00:08:15;5.67;;;2.77;;
19836;SDS011;10079;55.740;37.662;2022-12-07T00:11:22;3.93;;;2.40;;
19836;SDS011;10079;55.740;37.662;2022-12-07T00:14:28;5.37;;;2.20;;
19836;SDS011;10079;55.740;37.662;2022-12-07T00:17:35;4.93;;;2.20;;
19836;SDS011;10079;55.740;37.662;2022-12-07T00:20:41;3.63;;;2.50;;
19836;SDS011;10079;55.740;37.662;2022-12-07T00:23:48;7.90;;;2.83;;
19836;SDS011;10079;55.740;37.662;2022-12-07T00:26:54;6.53;;;2.73;;
19836;SDS011;10079;55.740;37.662;2022-12-07T00:30:00;5.87;;;2.77;;
19836;SDS011;10079;55.740;37.662;2022-12-07T00:33:06;6.13;;;2.77;;
19836;SDS011;10079;55.740;37.662;2022-12-07T00:36:14;4.13;;;2.20;;
19836;SDS011;10079;55.740;37.662;2022-12-07T00:39:19;4.63;;;2.27;;
19836;SDS011;10079;55.740;37.662;2022-12-07T00:42:30;3.23;;;2.40;;
19836;SDS011;10079;55.740;37.662;2022-12-07T00:45:46;6.53;;;2.77;;
19836;SDS011;10079;55.740;37.662;2022-12-07T00:48:52;5.30;;;2.60;;
19836;SDS011;10079;55.740;37.662;2022-12-07T00:51:55;5.10;;;2.50;;
19836;SDS011;10079;55.740;37.662;2022-12-07T00:54:59;7.77;;;2.83;;
19836;SDS011;10079;55.740;37.662;2022-12-07T00:58:15;5.87;;;3.13;;
19836;SDS011;10079;55.740;37.662;2022-12-07T01:01:21;5.83;;;2.63;;
19836;SDS011;10079;55.740;37.662;2022-12-07T01:04:37;7.00;;;2.93;;
19836;SDS011;10079;55.740;37.662;2022-12-07T01:07:40;5.20;;;2.40;;
19836;SDS011;10079;55.740;37.662;2022-12-07T01:10:43;4.53;;;2.43;;
19836;SDS011;10079;55.740;37.662;2022-12-07T01:13:53;4.60;;;2.17;;
19836;SDS011;10079;55.740;37.662;2022-12-07T01:16:56;6.07;;;2.60;;
19836;SDS011;10079;55.740;37.662;2022-12-07T01:19:58;5.30;;;2.67;;
19836;SDS011;10079;55.740;37.662;2022-12-07T01:23:01;5.73;;;2.27;;
19836;SDS011;10079;55.740;37.662;2022-12-07T01:26:06;4.37;;;2.67;;
19836;SDS011;10079;55.740;37.662;2022-12-07T01:29:08;4.97;;;2.33;;
19836;SDS011;10079;55.740;37.662;2022-12-07T01:32:10;4.67;;;2.43;;
19836;SDS011;10079;55.740;37.662;2022-12-07T01:35:13;6.80;;;3.00;;
19836;SDS011;10079;55.740;37.662;2022-12-07T01:38:19;6.87;;;3.23;;
19836;SDS011;10079;55.740;37.662;2022-12-07T01:41:23;5.00;;;2.60;;
19836;SDS011;10079;55.740;37.662;2022-12-07T01:44:26;6.27;;;2.67;;
19836;SDS011;10079;55.740;37.662;2022-12-07T01:47:32;5.63;;;2.87;;
19836;SDS011;10079;55.740;37.662;2022-12-07T02:01:25;7.57;;;3.07;;
19836;SDS011;10079;55.740;37.662;2022-12-07T02:04:40;5.73;;;2.83;;
19836;SDS011;10079;55.740;37.662;2022-12-07T02:07:43;7.93;;;3.07;;
19836;SDS011;10079;55.740;37.662;2022-12-07T02:10:54;6.80;;;2.73;;
19836;SDS011;10079;55.740;37.662;2022-12-07T02:14:10;9.33;;;3.40;;
19836;SDS011;10079;55.740;37.662;2022-12-07T02:17:25;6.40;;;2.70;;
19836;SDS011;10079;55.740;37.662;2022-12-07T02:20:33;4.03;;;2.37;;
19836;SDS011;10079;55.740;37.662;2022-12-07T02:24:05;6.10;;;2.87;;
19836;SDS011;10079;55.740;37.662;2022-12-07T02:27:45;6.10;;;2.43;;
19836;SDS011;10079;55.740;37.662;2022-12-07T02:30:48;6.13;;;2.50;;
19836;SDS011;10079;55.740;37.662;2022-12-07T02:33:54;7.57;;;2.73;;
19836;SDS011;10079;55.740;37.662;2022-12-07T02:37:05;5.37;;;3.33;;
19836;SDS011;10079;55.740;37.662;2022-12-07T02:40:19;3.13;;;2.23;;
19836;SDS011;10079;55.740;37.662;2022-12-07T02:43:34;4.80;;;2.20;;
19836;SDS011;10079;55.740;37.662;2022-12-07T02:46:44;5.27;;;2.53;;
19836;SDS011;10079;55.740;37.662;2022-12-07T02:50:11;5.23;;;2.67;;
19836;SDS011;10079;55.740;37.662;2022-12-07T02:56:48;6.03;;;2.70;;
19836;SDS011;10079;55.740;37.662;2022-12-07T03:00:00;6.07;;;2.60;;
19836;SDS011;10079;55.740;37.662;2022-12-07T03:03:09;7.03;;;2.77;;
19836;SDS011;10079;55.740;37.662;2022-12-07T03:06:15;5.67;;;2.73;;
19836;SDS011;10079;55.740;37.662;2022-12-07T03:09:20;5.03;;;2.87;;
19836;SDS011;10079;55.740;37.662;2022-12-07T03:12:24;8.83;;;3.90;;
19836;SDS011;10079;55.740;37.662;2022-12-07T03:15:29;6.23;;;3.27;;
19836;SDS011;10079;55.740;37.662;2022-12-07T03:18:38;7.70;;;3.47;;
19836;SDS011;10079;55.740;37.662;2022-12-07T03:21:47;6.70;;;3.00;;
19836;SDS011;10079;55.740;37.662;2022-12-07T03:24:54;8.27;;;3.03;;
19836;SDS011;10079;55.740;37.662;2022-12-07T03:28:00;7.80;;;2.90;;
19836;SDS011;10079;55.740;37.662;2022-12-07T03:31:05;5.47;;;3.27;;
19836;SDS011;10079;55.740;37.662;2022-12-07T03:34:07;9.10;;;3.30;;
19836;SDS011;10079;55.740;37.662;2022-12-07T03:37:26;6.73;;;3.13;;
19836;SDS011;10079;55.740;37.662;2022-12-07T03:40:34;6.93;;;3.37;;
19836;SDS011;10079;55.740;37.662;2022-12-07T03:43:48;8.30;;;3.33;;
19836;SDS011;10079;55.740;37.662;2022-12-07T03:46:58;9.03;;;2.97;;
19836;SDS011;10079;55.740;37.662;2022-12-07T03:49:59;5.40;;;3.00;;
19836;SDS011;10079;55.740;37.662;2022-12-07T03:53:11;7.97;;;3.80;;
19836;SDS011;10079;55.740;37.662;2022-12-07T03:56:18;6.13;;;3.50;;
19836;SDS011;10079;55.740;37.662;2022-12-07T03:59:24;9.57;;;4.13;;
19836;SDS011;10079;55.740;37.662;2022-12-07T04:02:30;5.70;;;3.07;;
19836;SDS011;10079;55.740;37.662;2022-12-07T04:05:34;7.17;;;3.50;;
19836;SDS011;10079;55.740;37.662;2022-12-07T04:08:40;5.20;;;3.03;;
19836;SDS011;10079;55.740;37.662;2022-12-07T04:11:43;7.73;;;3.37;;
19836;SDS011;10079;55.740;37.662;2022-12-07T04:14:46;6.60;;;3.50;;
19836;SDS011;10079;55.740;37.662;2022-12-07T04:17:52;6.50;;;3.73;;
19836;SDS011;10079;55.740;37.662;2022-12-07T04:21:04;7.80;;;4.07;;
19836;SDS011;10079;55.740;37.662;2022-12-07T04:24:19;8.47;;;4.27;;
19836;SDS011;10079;55.740;37.662;2022-12-07T04:27:22;5.53;;;2.97;;
19836;SDS011;10079;55.740;37.662;2022-12-07T04:41:15;9.37;;;4.37;;
19836;SDS011;10079;55.740;37.662;2022-12-07T04:44:21;8.17;;;4.17;;
19836;SDS011;10079;55.740;37.662;2022-12-07T04:47:27;7.93;;;3.63;;
19836;SDS011;10079;55.740;37.662;2022-12-07T04:50:34;5.80;;;3.03;;
19836;SDS011;10079;55.740;37.662;2022-12-07T04:53:40;6.73;;;3.33;;
19836;SDS011;10079;55.740;37.662;2022-12-07T04:56:43;7.50;;;3.57;;
19836;SDS011;10079;55.740;37.662;2022-12-07T04:59:49;6.97;;;3.20;;
19836;SDS011;10079;55.740;37.662;2022-12-07T05:02:56;7.17;;;3.77;;
19836;SDS011;10079;55.740;37.662;2022-12-07T05:06:02;7.40;;;3.40;;
19836;SDS011;10079;55.740;37.662;2022-12-07T05:09:08;7.20;;;3.57;;
19836;SDS011;10079;55.740;37.662;2022-12-07T05:12:15;11.37;;;3.77;;
19836;SDS011;10079;55.740;37.662;2022-12-07T05:25:58;8.53;;;4.03;;
19836;SDS011;10079;55.740;37.662;2022-12-07T05:29:01;8.50;;;4.40;;
19836;SDS011;10079;55.740;37.662;2022-12-07T05:32:10;8.43;;;4.00;;
19836;SDS011;10079;55.740;37.662;2022-12-07T05:35:14;8.27;;;3.97;;
19836;SDS011;10079;55.740;37.662;2022-12-07T05:38:17;7.00;;;4.53;;
19836;SDS011;10079;55.740;37.662;2022-12-07T05:41:20;8.23;;;4.17;;
19836;SDS011;10079;55.740;37.662;2022-12-07T05:44:23;14.67;;;4.50;;
19836;SDS011;10079;55.740;37.662;2022-12-07T05:47:26;8.87;;;3.47;;
19836;SDS011;10079;55.740;37.662;2022-12-07T05:50:32;7.57;;;4.33;;
19836;SDS011;10079;55.740;37.662;2022-12-07T05:53:35;11.43;;;3.93;;
19836;SDS011;10079;55.740;37.662;2022-12-07T05:56:38;9.87;;;4.40;;
19836;SDS011;10079;55.740;37.662;2022-12-07T05:59:42;7.67;;;4.57;;
19836;SDS011;10079;55.740;37.662;2022-12-07T06:02:45;8.43;;;4.33;;
19836;SDS011;10079;55.740;37.662;2022-12-07T06:05:49;9.93;;;5.07;;
19836;SDS011;10079;55.740;37.662;2022-12-07T06:08:52;12.00;;;4.23;;
19836;SDS011;10079;55.740;37.662;2022-12-07T06:11:56;7.00;;;3.70;;
19836;SDS011;10079;55.740;37.662;2022-12-07T06:15:02;11.17;;;4.40;;
19836;SDS011;10079;55.740;37.662;2022-12-07T06:18:05;14.27;;;4.33;;
19836;SDS011;10079;55.740;37.662;2022-12-07T06:21:09;8.43;;;4.30;;
19836;SDS011;10079;55.740;37.662;2022-12-07T06:24:12;10.80;;;4.77;;
19836;SDS011;10079;55.740;37.662;2022-12-07T06:27:18;12.40;;;4.67;;
19836;SDS011;10079;55.740;37.662;2022-12-07T06:30:21;8.90;;;4.50;;
19836;SDS011;10079;55.740;37.662;2022-12-07T06:33:24;8.90;;;4.23;;
19836;SDS011;10079;55.740;37.662;2022-12-07T06:36:28;8.90;;;5.03;;
19836;SDS011;10079;55.740;37.662;2022-12-07T06:50:10;16.20;;;5.70;;
19836;SDS011;10079;55.740;37.662;2022-12-07T06:53:22;8.13;;;5.33;;
19836;SDS011;10079;55.740;37.662;2022-12-07T07:06:59;15.77;;;6.00;;
19836;SDS011;10079;55.740;37.662;2022-12-07T07:10:02;10.97;;;4.97;;
19836;SDS011;10079;55.740;37.662;2022-12-07T07:13:05;12.13;;;6.17;;
19836;SDS011;10079;55.740;37.662;2022-12-07T07:16:11;12.50;;;5.53;;
19836;SDS011;10079;55.740;37.662;2022-12-07T07:19:17;11.47;;;6.10;;
19836;SDS011;10079;55.740;37.662;2022-12-07T07:22:24;11.43;;;5.60;;
19836;SDS011;10079;55.740;37.662;2022-12-07T07:25:27;12.00;;;5.13;;
19836;SDS011;10079;55.740;37.662;2022-12-07T07:28:39;11.97;;;5.30;;
19836;SDS011;10079;55.740;37.662;2022-12-07T07:31:54;13.67;;;5.80;;
19836;SDS011;10079;55.740;37.662;2022-12-07T07:35:09;13.43;;;5.70;;
19836;SDS011;10079;55.740;37.662;2022-12-07T07:38:14;14.60;;;5.47;;
19836;SDS011;10079;55.740;37.662;2022-12-07T07:41:26;9.70;;;4.67;;
19836;SDS011;10079;55.740;37.662;2022-12-07T07:55:06;13.50;;;6.43;;
19836;SDS011;10079;55.740;37.662;2022-12-07T07:58:10;12.57;;;4.67;;
19836;SDS011;10079;55.740;37.662;2022-12-07T08:01:14;8.53;;;4.90;;
19836;SDS011;10079;55.740;37.662;2022-12-07T08:04:17;9.83;;;5.00;;
19836;SDS011;10079;55.740;37.662;2022-12-07T08:07:19;9.30;;;5.33;;
19836;SDS011;10079;55.740;37.662;2022-12-07T08:10:35;8.83;;;5.03;;
19836;SDS011;10079;55.740;37.662;2022-12-07T08:13:41;10.70;;;5.17;;
19836;SDS011;10079;55.740;37.662;2022-12-07T08:16:56;9.30;;;5.53;;
19836;SDS011;10079;55.740;37.662;2022-12-07T08:20:00;13.10;;;5.83;;
19836;SDS011;10079;55.740;37.662;2022-12-07T08:23:06;13.30;;;5.97;;
19836;SDS011;10079;55.740;37.662;2022-12-07T08:26:14;10.60;;;4.73;;
19836;SDS011;10079;55.740;37.662;2022-12-07T08:29:19;10.53;;;5.00;;
19836;SDS011;10079;55.740;37.662;2022-12-07T08:32:35;12.23;;;5.43;;
19836;SDS011;10079;55.740;37.662;2022-12-07T08:35:39;9.97;;;4.97;;
19836;SDS011;10079;55.740;37.662;2022-12-07T08:38:41;12.33;;;5.97;;
19836;SDS011;10079;55.740;37.662;2022-12-07T08:41:45;10.93;;;4.87;;
19836;SDS011;10079;55.740;37.662;2022-12-07T08:44:48;15.07;;;5.23;;
19836;SDS011;10079;55.740;37.662;2022-12-07T08:47:53;8.27;;;5.30;;
19836;SDS011;10079;55.740;37.662;2022-12-07T08:50:57;9.20;;;5.30;;
19836;SDS011;10079;55.740;37.662;2022-12-07T08:54:04;11.37;;;5.23;;
19836;SDS011;10079;55.740;37.662;2022-12-07T08:57:06;10.80;;;5.20;;
19836;SDS011;10079;55.740;37.662;2022-12-07T09:00:10;10.67;;;5.30;;
19836;SDS011;10079;55.740;37.662;2022-12-07T09:03:12;12.93;;;5.37;;
19836;SDS011;10079;55.740;37.662;2022-12-07T09:06:15;13.30;;;5.90;;
19836;SDS011;10079;55.740;37.662;2022-12-07T09:09:18;11.50;;;5.40;;
19836;SDS011;10079;55.740;37.662;2022-12-07T09:12:21;11.57;;;5.63;;
19836;SDS011;10079;55.740;37.662;2022-12-07T09:15:24;9.50;;;4.87;;
19836;SDS011;10079;55.740;37.662;2022-12-07T09:18:37;8.50;;;4.97;;
19836;SDS011;10079;55.740;37.662;2022-12-07T09:21:48;11.60;;;5.90;;
19836;SDS011;10079;55.740;37.662;2022-12-07T09:35:23;10.80;;;5.57;;
19836;SDS011;10079;55.740;37.662;2022-12-07T09:38:30;9.03;;;5.03;;
19836;SDS011;10079;55.740;37.662;2022-12-07T09:41:37;10.77;;;5.30;;
19836;SDS011;10079;55.740;37.662;2022-12-07T09:44:53;9.40;;;4.83;;
19836;SDS011;10079;55.740;37.662;2022-12-07T09:47:56;6.83;;;4.27;;
19836;SDS011;10079;55.740;37.662;2022-12-07T09:50:59;9.40;;;4.50;;
19836;SDS011;10079;55.740;37.662;2022-12-07T09:54:09;8.50;;;4.83;;
19836;SDS011;10079;55.740;37.662;2022-12-07T09:57:27;9.10;;;4.70;;
19836;SDS011;10079;55.740;37.662;2022-12-07T10:00:29;8.67;;;4.00;;
19836;SDS011;10079;55.740;37.662;2022-12-07T10:14:14;9.40;;;5.20;;
19836;SDS011;10079;55.740;37.662;2022-12-07T10:17:29;9.87;;;5.57;;
19836;SDS011;10079;55.740;37.662;2022-12-07T10:20:35;7.43;;;4.27;;
19836;SDS011;10079;55.740;37.662;2022-12-07T10:23:40;8.07;;;4.47;;
19836;SDS011;10079;55.740;37.662;2022-12-07T10:26:57;9.10;;;4.80;;
19836;SDS011;10079;55.740;37.662;2022-12-07T10:30:07;12.67;;;5.27;;
19836;SDS011;10079;55.740;37.662;2022-12-07T10:33:26;9.87;;;5.10;;
19836;SDS011;10079;55.740;37.662;2022-12-07T10:36:25;8.70;;;4.43;;
19836;SDS011;10079;55.740;37.662;2022-12-07T10:39:31;11.13;;;5.83;;
19836;SDS011;10079;55.740;37.662;2022-12-07T10:42:37;9.87;;;4.90;;
19836;SDS011;10079;55.740;37.662;2022-12-07T10:46:05;8.53;;;5.03;;
19836;SDS011;10079;55.740;37.662;2022-12-07T10:52:28;10.43;;;4.60;;
19836;SDS011;10079;55.740;37.662;2022-12-07T10:59:39;11.17;;;4.77;;
19836;SDS011;10079;55.740;37.662;2022-12-07T11:02:41;9.83;;;5.07;;
19836;SDS011;10079;55.740;37.662;2022-12-07T11:05:45;10.73;;;4.60;;
19836;SDS011;10079;55.740;37.662;2022-12-07T11:12:20;6.60;;;4.00;;
19836;SDS011;10079;55.740;37.662;2022-12-07T11:15:26;8.67;;;4.47;;
19836;SDS011;10079;55.740;37.662;2022-12-07T11:18:52;11.47;;;4.93;;
19836;SDS011;10079;55.740;37.662;2022-12-07T11:21:57;9.20;;;4.30;;
19836;SDS011;10079;55.740;37.662;2022-12-07T11:25:13;12.17;;;5.10;;
19836;SDS011;10079;55.740;37.662;2022-12-07T11:28:17;8.33;;;4.03;;
19836;SDS011;10079;55.740;37.662;2022-12-07T11:31:23;10.37;;;4.33;;
19836;SDS011;10079;55.740;37.662;2022-12-07T11:34:32;10.60;;;4.27;;
19836;SDS011;10079;55.740;37.662;2022-12-07T11:37:33;9.13;;;4.40;;
19836;SDS011;10079;55.740;37.662;2022-12-07T11:40:36;10.50;;;4.63;;
19836;SDS011;10079;55.740;37.662;2022-12-07T11:43:49;12.80;;;5.03;;
19836;SDS011;10079;55.740;37.662;2022-12-07T11:46:51;10.70;;;4.80;;
19836;SDS011;10079;55.740;37.662;2022-12-07T11:49:54;13.50;;;4.60;;
19836;SDS011;10079;55.740;37.662;2022-12-07T11:52:58;8.87;;;4.10;;
19836;SDS011;10079;55.740;37.662;2022-12-07T11:56:08;8.27;;;4.60;;
19836;SDS011;10079;55.740;37.662;2022-12-07T12:10:21;13.53;;;5.73;;
19836;SDS011;10079;55.740;37.662;2022-12-07T12:13:48;10.67;;;5.50;;
19836;SDS011;10079;55.740;37.662;2022-12-07T12:20:19;9.80;;;4.67;;
19836;SDS011;10079;55.740;37.662;2022-12-07T12:23:39;10.37;;;5.40;;
19836;SDS011;10079;55.740;37.662;2022-12-07T12:26:41;9.90;;;5.10;;
19836;SDS011;10079;55.740;37.662;2022-12-07T12:29:45;10.67;;;5.30;;
19836;SDS011;10079;55.740;37.662;2022-12-07T12:32:48;8.23;;;4.73;;
19836;SDS011;10079;55.740;37.662;2022-12-07T12:36:19;12.57;;;5.40;;
19836;SDS011;10079;55.740;37.662;2022-12-07T12:39:21;9.90;;;5.40;;
19836;SDS011;10079;55.740;37.662;2022-12-07T12:42:42;13.10;;;5.90;;
19836;SDS011;10079;55.740;37.662;2022-12-07T12:45:38;11.73;;;5.27;;
19836;SDS011;10079;55.740;37.662;2022-12-07T12:48:53;9.20;;;4.67;;
19836;SDS011;10079;55.740;37.662;2022-12-07T12:55:50;11.13;;;5.20;;
19836;SDS011;10079;55.740;37.662;2022-12-07T12:59:18;9.23;;;5.10;;
19836;SDS011;10079;55.740;37.662;2022-12-07T13:02:22;18.07;;;5.87;;
19836;SDS011;10079;55.740;37.662;2022-12-07T13:05:29;12.67;;;5.87;;
19836;SDS011;10079;55.740;37.662;2022-12-07T13:08:31;12.17;;;6.13;;
19836;SDS011;10079;55.740;37.662;2022-12-07T13:11:36;10.10;;;5.40;;
19836;SDS011;10079;55.740;37.662;2022-12-07T13:14:41;13.87;;;6.07;;
19836;SDS011;10079;55.740;37.662;2022-12-07T13:28:19;13.00;;;6.73;;
19836;SDS011;10079;55.740;37.662;2022-12-07T13:31:34;13.90;;;6.73;;
19836;SDS011;10079;55.740;37.662;2022-12-07T13:34:41;11.37;;;5.60;;
19836;SDS011;10079;55.740;37.662;2022-12-07T13:37:44;15.27;;;6.43;;
19836;SDS011;10079;55.740;37.662;2022-12-07T13:44:01;11.70;;;5.60;;
19836;SDS011;10079;55.740;37.662;2022-12-07T13:47:06;12.40;;;6.20;;
19836;SDS011;10079;55.740;37.662;2022-12-07T13:50:23;19.00;;;7.10;;
19836;SDS011;10079;55.740;37.662;2022-12-07T13:53:30;14.97;;;6.00;;
19836;SDS011;10079;55.740;37.662;2022-12-07T13:56:36;15.67;;;6.77;;
19836;SDS011;10079;55.740;37.662;2022-12-07T13:59:39;13.70;;;5.73;;
19836;SDS011;10079;55.740;37.662;2022-12-07T14:02:54;12.20;;;5.23;;
19836;SDS011;10079;55.740;37.662;2022-12-07T14:09:17;12.37;;;5.43;;
19836;SDS011;10079;55.740;37.662;2022-12-07T14:12:17;11.13;;;5.37;;
19836;SDS011;10079;55.740;37.662;2022-12-07T14:15:21;8.90;;;4.67;;
19836;SDS011;10079;55.740;37.662;2022-12-07T14:18:27;12.30;;;5.00;;
19836;SDS011;10079;55.740;37.662;2022-12-07T14:21:34;10.73;;;5.00;;
19836;SDS011;10079;55.740;37.662;2022-12-07T14:27:48;14.43;;;5.50;;
19836;SDS011;10079;55.740;37.662;2022-12-07T14:30:49;10.97;;;4.60;;
19836;SDS011;10079;55.740;37.662;2022-12-07T14:33:52;12.30;;;5.90;;
19836;SDS011;10079;55.740;37.662;2022-12-07T14:37:09;13.47;;;6.40;;
19836;SDS011;10079;55.740;37.662;2022-12-07T14:40:14;14.53;;;6.57;;
19836;SDS011;10079;55.740;37.662;2022-12-07T14:43:19;12.57;;;5.00;;
19836;SDS011;10079;55.740;37.662;2022-12-07T14:46:21;17.50;;;5.90;;
19836;SDS011;10079;55.740;37.662;2022-12-07T14:49:36;12.83;;;5.87;;
19836;SDS011;10079;55.740;37.662;2022-12-07T14:52:43;15.33;;;6.00;;
19836;SDS011;10079;55.740;37.662;2022-12-07T15:06:21;16.53;;;6.90;;
19836;SDS011;10079;55.740;37.662;2022-12-07T15:09:24;15.50;;;6.67;;
19836;SDS011;10079;55.740;37.662;2022-12-07T15:12:28;16.33;;;5.77;;
19836;SDS011;10079;55.740;37.662;2022-12-07T15:15:31;13.77;;;5.20;;
19836;SDS011;10079;55.740;37.662;2022-12-07T15:18:33;10.53;;;5.63;;
19836;SDS011;10079;55.740;37.662;2022-12-07T15:21:40;16.13;;;5.87;;
19836;SDS011;10079;55.740;37.662;2022-12-07T15:35:32;15.03;;;6.90;;
19836;SDS011;10079;55.740;37.662;2022-12-07T15:38:39;15.57;;;7.53;;
19836;SDS011;10079;55.740;37.662;2022-12-07T15:41:54;13.47;;;6.30;;
19836;SDS011;10079;55.740;37.662;2022-12-07T15:45:00;13.07;;;6.03;;
19836;SDS011;10079;55.740;37.662;2022-12-07T15:48:04;15.83;;;6.50;;
19836;SDS011;10079;55.740;37.662;2022-12-07T15:51:07;12.27;;;5.87;;
19836;SDS011;10079;55.740;37.662;2022-12-07T15:54:13;15.57;;;6.23;;
19836;SDS011;10079;55.740;37.662;2022-12-07T15:57:17;15.10;;;6.00;;
19836;SDS011;10079;55.740;37.662;2022-12-07T16:00:20;16.80;;;6.10;;
19836;SDS011;10079;55.740;37.662;2022-12-07T16:03:24;9.53;;;5.37;;
19836;SDS011;10079;55.740;37.662;2022-12-07T16:06:26;11.87;;;5.13;;
19836;SDS011;10079;55.740;37.662;2022-12-07T16:09:29;11.47;;;5.20;;
19836;SDS011;10079;55.740;37.662;2022-12-07T16:12:36;16.27;;;6.37;;
19836;SDS011;10079;55.740;37.662;2022-12-07T16:15:42;14.33;;;6.43;;
19836;SDS011;10079;55.740;37.662;2022-12-07T16:18:49;12.80;;;5.90;;
19836;SDS011;10079;55.740;37.662;2022-12-07T16:21:52;12.53;;;5.70;;
19836;SDS011;10079;55.740;37.662;2022-12-07T16:24:55;10.53;;;5.53;;
19836;SDS011;10079;55.740;37.662;2022-12-07T16:28:00;16.87;;;6.00;;
19836;SDS011;10079;55.740;37.662;2022-12-07T16:31:04;14.20;;;4.40;;
19836;SDS011;10079;55.740;37.662;2022-12-07T16:34:07;11.53;;;5.20;;
19836;SDS011;10079;55.740;37.662;2022-12-07T16:37:09;11.23;;;4.73;;
19836;SDS011;10079;55.740;37.662;2022-12-07T16:40:12;7.70;;;3.57;;
19836;SDS011;10079;55.740;37.662;2022-12-07T16:43:16;10.23;;;4.70;;
19836;SDS011;10079;55.740;37.662;2022-12-07T16:46:19;12.60;;;5.70;;
19836;SDS011;10079;55.740;37.662;2022-12-07T16:49:22;11.30;;;5.03;;
19836;SDS011;10079;55.740;37.662;2022-12-07T16:52:24;11.90;;;5.27;;
19836;SDS011;10079;55.740;37.662;2022-12-07T16:55:28;12.37;;;4.90;;
19836;SDS011;10079;55.740;37.662;2022-12-07T16:58:32;17.20;;;5.20;;
19836;SDS011;10079;55.740;37.662;2022-12-07T17:01:35;14.67;;;5.50;;
19836;SDS011;10079;55.740;37.662;2022-12-07T17:04:38;13.20;;;5.10;;
19836;SDS011;10079;55.740;37.662;2022-12-07T17:07:40;11.30;;;5.20;;
19836;SDS011;10079;55.740;37.662;2022-12-07T17:10:47;10.13;;;5.67;;
19836;SDS011;10079;55.740;37.662;2022-12-07T17:24:38;14.97;;;6.50;;
19836;SDS011;10079;55.740;37.662;2022-12-07T17:38:12;15.10;;;7.13;;
19836;SDS011;10079;55.740;37.662;2022-12-07T17:41:16;14.17;;;5.53;;
19836;SDS011;10079;55.740;37.662;2022-12-07T17:44:18;13.60;;;5.60;;
19836;SDS011;10079;55.740;37.662;2022-12-07T17:47:21;10.87;;;4.70;;
19836;SDS011;10079;55.740;37.662;2022-12-07T17:50:24;12.77;;;5.70;;
19836;SDS011;10079;55.740;37.662;2022-12-07T17:53:28;13.60;;;6.10;;
19836;SDS011;10079;55.740;37.662;2022-12-07T17:56:34;13.10;;;5.13;;
19836;SDS011;10079;55.740;37.662;2022-12-07T17:59:48;13.17;;;5.80;;
19836;SDS011;10079;55.740;37.662;2022-12-07T18:03:04;13.47;;;6.43;;
19836;SDS011;10079;55.740;37.662;2022-12-07T18:06:10;12.53;;;4.63;;
19836;SDS011;10079;55.740;37.662;2022-12-07T18:09:24;11.83;;;5.63;;
19836;SDS011;10079;55.740;37.662;2022-12-07T18:12:40;15.63;;;6.37;;
19836;SDS011;10079;55.740;37.662;2022-12-07T18:15:43;9.77;;;4.53;;
19836;SDS011;10079;55.740;37.662;2022-12-07T18:18:50;13.80;;;5.87;;
19836;SDS011;10079;55.740;37.662;2022-12-07T18:21:53;12.80;;;4.90;;
19836;SDS011;10079;55.740;37.662;2022-12-07T18:24:56;15.57;;;6.00;;
19836;SDS011;10079;55.740;37.662;2022-12-07T18:27:59;13.70;;;5.07;;
19836;SDS011;10079;55.740;37.662;2022-12-07T18:31:11;8.67;;;4.13;;
19836;SDS011;10079;55.740;37.662;2022-12-07T18:34:17;14.13;;;5.07;;
19836;SDS011;10079;55.740;37.662;2022-12-07T18:37:23;11.87;;;4.70;;
19836;SDS011;10079;55.740;37.662;2022-12-07T18:40:29;11.30;;;4.63;;
19836;SDS011;10079;55.740;37.662;2022-12-07T18:43:36;10.53;;;4.77;;
19836;SDS011;10079;55.740;37.662;2022-12-07T18:46:42;12.23;;;4.93;;
19836;SDS011;10079;55.740;37.662;2022-12-07T18:49:49;13.13;;;4.97;;
19836;SDS011;10079;55.740;37.662;2022-12-07T18:52:57;11.07;;;3.93;;
19836;SDS011;10079;55.740;37.662;2022-12-07T18:56:04;7.80;;;3.73;;
19836;SDS011;10079;55.740;37.662;2022-12-07T18:59:06;10.57;;;5.07;;
19836;SDS011;10079;55.740;37.662;2022-12-07T19:02:09;8.43;;;4.00;;
19836;SDS011;10079;55.740;37.662;2022-12-07T19:05:13;11.50;;;5.40;;
19836;SDS011;10079;55.740;37.662;2022-12-07T19:08:19;14.40;;;5.30;;
19836;SDS011;10079;55.740;37.662;2022-12-07T19:11:26;10.33;;;4.07;;
19836;SDS011;10079;55.740;37.662;2022-12-07T19:14:33;13.90;;;5.50;;
19836;SDS011;10079;55.740;37.662;2022-12-07T19:17:39;9.33;;;4.30;;
19836;SDS011;10079;55.740;37.662;2022-12-07T19:20:52;10.93;;;5.03;;
19836;SDS011;10079;55.740;37.662;2022-12-07T19:23:54;7.50;;;4.07;;
19836;SDS011;10079;55.740;37.662;2022-12-07T19:26:57;6.10;;;3.30;;
19836;SDS011;10079;55.740;37.662;2022-12-07T19:30:01;9.23;;;4.70;;
19836;SDS011;10079;55.740;37.662;2022-12-07T19:33:06;9.37;;;4.00;;
19836;SDS011;10079;55.740;37.662;2022-12-07T19:36:09;8.77;;;5.43;;
19836;SDS011;10079;55.740;37.662;2022-12-07T19:39:13;11.40;;;4.23;;
19836;SDS011;10079;55.740;37.662;2022-12-07T19:42:18;10.20;;;4.97;;
19836;SDS011;10079;55.740;37.662;2022-12-07T19:45:25;8.70;;;5.03;;
19836;SDS011;10079;55.740;37.662;2022-12-07T19:58:59;11.60;;;5.63;;
19836;SDS011;10079;55.740;37.662;2022-12-07T20:02:05;13.77;;;5.10;;
19836;SDS011;10079;55.740;37.662;2022-12-07T20:05:08;14.23;;;4.77;;
19836;SDS011;10079;55.740;37.662;2022-12-07T20:08:24;10.13;;;5.47;;
19836;SDS011;10079;55.740;37.662;2022-12-07T20:11:26;11.03;;;4.00;;
19836;SDS011;10079;55.740;37.662;2022-12-07T20:14:42;8.47;;;4.50;;
19836;SDS011;10079;55.740;37.662;2022-12-07T20:17:56;14.60;;;5.60;;
19836;SDS011;10079;55.740;37.662;2022-12-07T20:21:11;10.50;;;4.97;;
19836;SDS011;10079;55.740;37.662;2022-12-07T20:24:16;15.17;;;5.80;;
19836;SDS011;10079;55.740;37.662;2022-12-07T20:27:30;10.07;;;4.53;;
19836;SDS011;10079;55.740;37.662;2022-12-07T20:30:36;9.97;;;4.83;;
19836;SDS011;10079;55.740;37.662;2022-12-07T20:33:41;7.53;;;4.03;;
19836;SDS011;10079;55.740;37.662;2022-12-07T20:36:47;9.17;;;3.50;;
19836;SDS011;10079;55.740;37.662;2022-12-07T20:39:50;10.17;;;4.87;;
19836;SDS011;10079;55.740;37.662;2022-12-07T20:42:56;11.57;;;4.33;;
19836;SDS011;10079;55.740;37.662;2022-12-07T20:46:00;8.00;;;4.00;;
19836;SDS011;10079;55.740;37.662;2022-12-07T20:49:03;14.10;;;5.17;;
19836;SDS011;10079;55.740;37.662;2022-12-07T20:52:06;8.30;;;3.90;;
19836;SDS011;10079;55.740;37.662;2022-12-07T20:55:09;9.00;;;4.10;;
19836;SDS011;10079;55.740;37.662;2022-12-07T20:58:12;8.73;;;3.90;;
19836;SDS011;10079;55.740;37.662;2022-12-07T21:01:24;6.30;;;2.63;;
19836;SDS011;10079;55.740;37.662;2022-12-07T21:04:30;8.37;;;3.40;;
19836;SDS011;10079;55.740;37.662;2022-12-07T21:07:36;7.70;;;3.97;;
19836;SDS011;10079;55.740;37.662;2022-12-07T21:10:43;8.53;;;4.30;;
19836;SDS011;10079;55.740;37.662;2022-12-07T21:13:55;14.33;;;4.53;;
19836;SDS011;10079;55.740;37.662;2022-12-07T21:27:29;11.20;;;5.07;;
19836;SDS011;10079;55.740;37.662;2022-12-07T21:30:37;8.07;;;4.30;;
19836;SDS011;10079;55.740;37.662;2022-12-07T21:33:39;7.23;;;3.80;;
19836;SDS011;10079;55.740;37.662;2022-12-07T21:36:42;9.10;;;3.80;;
19836;SDS011;10079;55.740;37.662;2022-12-07T21:39:45;6.17;;;3.77;;
19836;SDS011;10079;55.740;37.662;2022-12-07T21:42:51;11.77;;;4.77;;